Time;durP1;ratioP1;P1;durP2;ratioP2;P2;SDS_P1;SDS_P2;PMS_P1;PMS_P2;Temp;Humidity;BMP_temperature;BMP_pressure;BME280_temperature;BME280_humidity;BME280_pressure;Samples;Min_cycle;Max_cycle;Signal;HPM_P1;HPM_P2
2021/11/13 00:01:23;;;;;;;;;;;2.20;63.70;;;;;;5111281;27;19982;-68
2021/11/13 00:03:51;;;;;;;;;;;2.20;63.80;;;;;;5099245;28;19962;-69
2021/11/13 00:06:23;;;;;;;;;;;2.20;63.80;;;;;;5101228;27;20310;-68
2021/11/13 00:08:52;;;;;;;;;;;2.20;63.80;;;;;;5091789;28;19931;-69
2021/11/13 00:11:20;;;;;;;;;;;2.10;63.80;;;;;;5103794;27;20352;-69
2021/11/13 00:13:52;;;;;;;;;;;2.00;63.60;;;;;;5109673;27;20022;-69
2021/11/13 00:16:23;;;;;;;;;;;2.10;63.60;;;;;;5083997;28;19932;-69
2021/11/13 00:18:51;;;;;;;;;;;2.20;63.70;;;;;;5101663;27;19930;-69
2021/11/13 00:21:19;;;;;;;;;;;2.00;63.60;;;;;;5108793;27;20035;-69
2021/11/13 00:23:52;;;;;;;;;;;2.00;63.60;;;;;;5102489;28;20180;-69
2021/11/13 00:26:25;;;;;;;;;;;2.20;63.80;;;;;;5096675;28;19956;-69
2021/11/13 00:28:53;;;;;;;;;;;2.10;63.70;;;;;;5109411;28;19935;-69
2021/11/13 00:31:21;;;;;;;;;;;2.00;63.60;;;;;;5100614;28;19935;-69
2021/11/13 00:33:49;;;;;;;;;;;2.00;63.60;;;;;;5090144;28;20522;-67
2021/11/13 00:36:16;;;;;;;;;;;1.90;63.50;;;;;;5073877;28;19928;-68
2021/11/13 00:38:44;;;;;;;;;;;1.90;63.50;;;;;;5081897;28;20371;-68
2021/11/13 00:41:13;;;;;;;;;;;1.90;63.50;;;;;;5089064;28;19970;-68
2021/11/13 00:43:42;;;;;;;;;;;1.90;64.20;;;;;;5078946;28;19924;-68
2021/11/13 00:46:12;;;;;;;;;;;1.90;63.50;;;;;;5094665;28;19931;-68
2021/11/13 00:48:40;;;;;;;;;;;1.90;63.60;;;;;;5093211;28;19971;-68
2021/11/13 00:51:08;;;;;;;;;;;1.90;63.60;;;;;;5081263;28;20291;-68
2021/11/13 00:53:36;;;;;;;;;;;2.00;63.70;;;;;;5082015;28;19924;-68
2021/11/13 00:56:05;;;;;;;;;;;1.90;63.50;;;;;;5081574;28;19932;-68
2021/11/13 01:01:13;;;;;;;;;;;2.00;63.60;;;;;;5080699;28;19931;-68
2021/11/13 01:03:41;;;;;;;;;;;2.00;63.70;;;;;;5085604;28;19938;-68
2021/11/13 01:06:09;;;;;;;;;;;2.00;63.80;;;;;;5074153;28;19978;-68
2021/11/13 01:08:41;;;;;;;;;;;2.10;64.00;;;;;;5086824;28;19951;-69
2021/11/13 01:11:12;;;;;;;;;;;2.00;64.20;;;;;;5080078;28;20429;-70
2021/11/13 01:13:42;;;;;;;;;;;2.00;64.10;;;;;;5074858;28;20371;-69
2021/11/13 01:16:17;;;;;;;;;;;2.10;64.00;;;;;;5081978;28;20402;-68
2021/11/13 01:18:47;;;;;;;;;;;2.10;64.20;;;;;;5080811;28;20379;-69
2021/11/13 01:21:19;;;;;;;;;;;1.90;63.70;;;;;;5083062;28;19939;-68
2021/11/13 01:23:48;;;;;;;;;;;1.90;63.90;;;;;;5088564;28;19932;-68
2021/11/13 01:26:16;;;;;;;;;;;1.90;64.10;;;;;;5080284;28;19985;-68
2021/11/13 01:28:45;;;;;;;;;;;1.80;63.90;;;;;;5085606;28;19969;-68
2021/11/13 01:31:15;;;;;;;;;;;1.80;63.80;;;;;;5083875;28;19978;-68
2021/11/13 01:33:46;;;;;;;;;;;1.90;64.00;;;;;;5080423;28;19962;-68
2021/11/13 01:36:17;;;;;;;;;;;1.90;64.60;;;;;;5081155;28;19932;-69
2021/11/13 01:38:48;;;;;;;;;;;1.80;64.50;;;;;;5087060;28;19973;-68
2021/11/13 01:41:16;;;;;;;;;;;1.80;64.20;;;;;;5077214;28;19931;-68
2021/11/13 01:43:45;;;;;;;;;;;1.80;64.30;;;;;;5089184;28;20007;-68
2021/11/13 01:46:16;;;;;;;;;;;1.90;64.50;;;;;;5080209;28;19932;-68
2021/11/13 01:48:46;;;;;;;;;;;1.80;64.60;;;;;;5079375;28;20303;-68
2021/11/13 01:51:19;;;;;;;;;;;1.90;64.70;;;;;;5089489;28;19928;-68
2021/11/13 01:53:48;;;;;;;;;;;1.90;64.90;;;;;;5082492;28;20014;-69
2021/11/13 01:56:19;;;;;;;;;;;1.80;64.50;;;;;;5079897;28;19932;-68
2021/11/13 01:58:54;;;;;;;;;;;1.80;65.00;;;;;;5085134;28;19924;-68
2021/11/13 02:01:24;;;;;;;;;;;1.90;65.00;;;;;;5082694;28;19924;-69
2021/11/13 02:03:53;;;;;;;;;;;1.80;64.60;;;;;;5086527;27;20032;-69
2021/11/13 02:06:24;;;;;;;;;;;1.80;65.20;;;;;;5081734;28;19936;-69
2021/11/13 02:08:52;;;;;;;;;;;2.00;64.60;;;;;;5081538;28;19967;-68
2021/11/13 02:11:24;;;;;;;;;;;2.00;64.80;;;;;;5075481;28;19924;-69
2021/11/13 02:13:55;;;;;;;;;;;2.00;65.80;;;;;;5072772;28;19934;-69
2021/11/13 02:16:25;;;;;;;;;;;1.90;66.30;;;;;;5078000;28;19939;-69
2021/11/13 02:18:54;;;;;;;;;;;1.90;65.90;;;;;;5083608;28;19932;-68
2021/11/13 02:21:26;;;;;;;;;;;1.90;65.90;;;;;;5084394;28;20480;-69
2021/11/13 02:23:54;;;;;;;;;;;1.90;65.90;;;;;;5078448;28;19990;-68
2021/11/13 02:26:25;;;;;;;;;;;1.90;65.40;;;;;;5080946;28;19984;-67
2021/11/13 02:28:56;;;;;;;;;;;1.90;65.20;;;;;;5081264;28;21537;-68
2021/11/13 02:31:31;;;;;;;;;;;2.00;65.00;;;;;;5080273;28;20291;-68
2021/11/13 02:33:59;;;;;;;;;;;2.00;65.30;;;;;;5084614;28;19969;-68
2021/11/13 02:36:29;;;;;;;;;;;2.00;65.80;;;;;;5076816;28;20671;-68
2021/11/13 02:38:58;;;;;;;;;;;2.00;65.60;;;;;;5081983;28;20446;-68
2021/11/13 02:41:29;;;;;;;;;;;2.10;65.60;;;;;;5090330;28;19939;-68
2021/11/13 02:43:57;;;;;;;;;;;2.00;66.30;;;;;;5083867;28;19960;-67
2021/11/13 02:46:26;;;;;;;;;;;2.00;66.00;;;;;;5082104;28;19991;-67
2021/11/13 02:48:55;;;;;;;;;;;2.00;66.00;;;;;;5084708;28;19977;-67
2021/11/13 02:51:24;;;;;;;;;;;2.00;65.30;;;;;;5084050;28;19938;-67
2021/11/13 02:53:53;;;;;;;;;;;2.00;65.30;;;;;;5084565;28;20388;-68
2021/11/13 02:56:22;;;;;;;;;;;1.80;65.10;;;;;;5088080;28;19924;-68
2021/11/13 02:58:52;;;;;;;;;;;1.90;64.70;;;;;;5085145;28;19928;-67
2021/11/13 03:01:22;;;;;;;;;;;1.90;64.60;;;;;;5087782;28;19924;-67
2021/11/13 03:03:51;;;;;;;;;;;1.90;64.60;;;;;;5086199;28;19924;-67
2021/11/13 03:06:19;;;;;;;;;;;2.00;64.70;;;;;;5082606;28;19938;-68
2021/11/13 03:08:49;;;;;;;;;;;2.10;64.90;;;;;;5085603;28;19939;-68
2021/11/13 03:11:22;;;;;;;;;;;2.20;65.00;;;;;;5087382;28;20019;-69
2021/11/13 03:13:50;;;;;;;;;;;2.20;65.30;;;;;;5086433;28;20027;-68
2021/11/13 03:16:19;;;;;;;;;;;2.20;65.30;;;;;;5085169;28;20398;-67
2021/11/13 03:18:51;;;;;;;;;;;2.30;65.40;;;;;;5056715;27;19980;-67
2021/11/13 03:21:19;;;;;;;;;;;2.30;65.50;;;;;;5085642;27;19971;-67
2021/11/13 03:23:48;;;;;;;;;;;2.20;65.90;;;;;;5084949;28;19959;-67
2021/11/13 03:26:17;;;;;;;;;;;2.20;66.00;;;;;;5085883;28;20019;-68
2021/11/13 03:28:48;;;;;;;;;;;2.10;65.90;;;;;;5086888;28;19928;-67
2021/11/13 03:31:16;;;;;;;;;;;2.20;65.70;;;;;;5084474;28;19970;-67
2021/11/13 03:33:45;;;;;;;;;;;2.00;66.20;;;;;;5087111;28;20019;-68
2021/11/13 03:36:16;;;;;;;;;;;2.10;66.20;;;;;;5086029;28;19925;-68
2021/11/13 03:38:48;;;;;;;;;;;2.10;66.10;;;;;;5055160;28;19928;-68
2021/11/13 03:41:17;;;;;;;;;;;2.10;66.20;;;;;;5089324;28;20002;-68
2021/11/13 03:43:47;;;;;;;;;;;2.10;66.30;;;;;;5084859;28;19928;-68
2021/11/13 03:46:18;;;;;;;;;;;2.20;66.20;;;;;;5085195;28;20384;-68
2021/11/13 03:48:49;;;;;;;;;;;2.10;66.20;;;;;;5086896;28;19931;-68
2021/11/13 03:51:18;;;;;;;;;;;2.10;66.40;;;;;;5082006;28;19932;-68
2021/11/13 03:53:48;;;;;;;;;;;2.10;66.70;;;;;;5080115;28;19928;-69
2021/11/13 03:56:16;;;;;;;;;;;2.10;66.90;;;;;;5090048;27;19982;-68
2021/11/13 03:58:49;;;;;;;;;;;2.00;66.90;;;;;;5086134;28;20461;-68
2021/11/13 04:01:17;;;;;;;;;;;2.10;66.70;;;;;;5082632;28;20383;-68
2021/11/13 04:03:46;;;;;;;;;;;2.10;66.80;;;;;;5081029;28;19924;-68
2021/11/13 04:06:15;;;;;;;;;;;2.00;66.70;;;;;;5086859;28;19939;-68
2021/11/13 04:08:43;;;;;;;;;;;2.00;66.90;;;;;;5080860;28;20558;-68
2021/11/13 04:11:13;;;;;;;;;;;2.20;66.80;;;;;;5084023;28;19936;-68
2021/11/13 04:13:41;;;;;;;;;;;2.10;66.90;;;;;;5087565;28;19977;-68
2021/11/13 04:16:11;;;;;;;;;;;2.20;67.60;;;;;;5080603;28;19971;-68
2021/11/13 04:18:41;;;;;;;;;;;2.10;67.20;;;;;;5086144;28;19993;-68
2021/11/13 04:21:10;;;;;;;;;;;2.20;67.20;;;;;;5057795;28;19946;-68
2021/11/13 04:23:40;;;;;;;;;;;2.20;67.20;;;;;;5091205;28;20014;-68
2021/11/13 04:26:08;;;;;;;;;;;2.30;67.30;;;;;;5079958;28;20439;-67
2021/11/13 04:28:38;;;;;;;;;;;2.30;67.20;;;;;;5087673;28;19932;-68
2021/11/13 04:31:12;;;;;;;;;;;2.30;67.50;;;;;;5079422;28;19924;-68
2021/11/13 04:33:40;;;;;;;;;;;2.30;67.60;;;;;;5089080;28;19967;-68
2021/11/13 04:36:14;;;;;;;;;;;2.30;67.60;;;;;;5080343;28;20346;-68
2021/11/13 04:38:45;;;;;;;;;;;2.40;67.60;;;;;;5080303;28;19939;-68
2021/11/13 04:41:16;;;;;;;;;;;2.40;67.60;;;;;;5086398;28;19924;-68
2021/11/13 04:43:48;;;;;;;;;;;2.40;67.70;;;;;;5081729;28;19967;-68
2021/11/13 04:46:17;;;;;;;;;;;2.40;67.80;;;;;;5080899;28;20007;-68
2021/11/13 04:48:46;;;;;;;;;;;2.50;68.00;;;;;;5087473;28;19938;-68
2021/11/13 04:51:13;;;;;;;;;;;2.50;68.10;;;;;;5081639;28;20030;-68
2021/11/13 04:53:43;;;;;;;;;;;2.60;68.10;;;;;;5083357;28;19924;-67
2021/11/13 04:56:11;;;;;;;;;;;2.60;68.20;;;;;;5081819;28;19976;-68
2021/11/13 04:58:41;;;;;;;;;;;2.60;68.20;;;;;;5078124;28;20371;-68
2021/11/13 05:01:09;;;;;;;;;;;2.60;68.20;;;;;;5086447;28;20259;-68
2021/11/13 05:03:40;;;;;;;;;;;2.60;68.50;;;;;;5079959;28;20414;-68
2021/11/13 05:06:09;;;;;;;;;;;2.60;68.50;;;;;;5087305;28;20389;-68
2021/11/13 05:08:39;;;;;;;;;;;2.60;68.50;;;;;;5082829;28;19959;-67
2021/11/13 05:11:08;;;;;;;;;;;2.60;68.70;;;;;;5107853;27;19931;-68
2021/11/13 05:13:36;;;;;;;;;;;2.60;68.60;;;;;;5102221;27;19930;-67
2021/11/13 05:16:06;;;;;;;;;;;2.60;68.80;;;;;;5097337;28;19930;-67
2021/11/13 05:18:34;;;;;;;;;;;2.60;69.40;;;;;;5106935;27;19934;-67
2021/11/13 05:21:03;;;;;;;;;;;2.60;68.80;;;;;;5101638;28;20014;-68
2021/11/13 05:23:31;;;;;;;;;;;2.60;68.70;;;;;;5098778;28;19968;-67
2021/11/13 05:25:59;;;;;;;;;;;2.60;68.70;;;;;;5081678;28;19930;-68
2021/11/13 05:28:27;;;;;;;;;;;2.60;68.60;;;;;;5077305;28;20014;-68
2021/11/13 05:30:56;;;;;;;;;;;2.60;68.50;;;;;;5093341;28;19932;-67
2021/11/13 05:33:24;;;;;;;;;;;2.60;68.20;;;;;;5106456;27;20010;-68
2021/11/13 05:35:56;;;;;;;;;;;2.70;68.40;;;;;;5102852;27;20741;-68
2021/11/13 05:38:29;;;;;;;;;;;2.60;68.10;;;;;;5102614;27;19939;-68
2021/11/13 05:40:56;;;;;;;;;;;2.70;68.00;;;;;;5093799;27;19955;-68
2021/11/13 05:43:28;;;;;;;;;;;2.60;67.30;;;;;;5079394;28;19931;-68
2021/11/13 05:45:56;;;;;;;;;;;2.70;67.10;;;;;;5078457;28;19932;-68
2021/11/13 05:48:24;;;;;;;;;;;2.70;66.60;;;;;;5089259;28;20014;-68
2021/11/13 05:50:55;;;;;;;;;;;2.70;66.30;;;;;;5081854;28;20337;-68
2021/11/13 05:53:24;;;;;;;;;;;2.70;65.50;;;;;;5084439;27;19928;-68
2021/11/13 05:55:53;;;;;;;;;;;2.70;64.30;;;;;;5079458;28;20023;-68
2021/11/13 05:58:23;;;;;;;;;;;2.70;62.50;;;;;;5079038;28;19935;-68
2021/11/13 06:00:55;;;;;;;;;;;2.70;62.50;;;;;;5084260;28;19938;-68
2021/11/13 06:03:24;;;;;;;;;;;2.70;61.10;;;;;;5084967;28;19943;-68
2021/11/13 06:05:53;;;;;;;;;;;2.70;58.20;;;;;;5078439;28;20015;-68
2021/11/13 06:08:22;;;;;;;;;;;2.70;58.00;;;;;;5087629;28;19932;-67
2021/11/13 06:10:55;;;;;;;;;;;2.70;58.10;;;;;;5078494;28;20018;-68
2021/11/13 06:13:22;;;;;;;;;;;2.70;58.50;;;;;;5080139;28;19943;-68
2021/11/13 06:15:50;;;;;;;;;;;2.80;57.60;;;;;;5080664;28;20744;-68
2021/11/13 06:18:18;;;;;;;;;;;2.70;54.60;;;;;;5082621;28;20597;-68
2021/11/13 06:20:46;;;;;;;;;;;2.80;55.00;;;;;;5084445;28;20329;-68
2021/11/13 06:23:14;;;;;;;;;;;2.80;54.20;;;;;;5080315;28;19928;-68
2021/11/13 06:25:41;;;;;;;;;;;2.80;53.20;;;;;;5081395;28;19934;-68
2021/11/13 06:28:16;;;;;;;;;;;2.80;52.60;;;;;;5082286;28;19943;-68
2021/11/13 06:30:44;;;;;;;;;;;2.80;52.20;;;;;;5080783;28;19924;-68
2021/11/13 06:33:12;;;;;;;;;;;2.80;51.40;;;;;;5077385;28;19924;-68
2021/11/13 06:35:40;;;;;;;;;;;2.80;50.70;;;;;;5078038;28;20027;-67
2021/11/13 06:38:10;;;;;;;;;;;2.90;49.70;;;;;;5082102;28;19931;-67
2021/11/13 06:40:38;;;;;;;;;;;2.90;49.90;;;;;;5080921;28;19982;-68
2021/11/13 06:43:06;;;;;;;;;;;2.90;49.00;;;;;;5077107;28;20024;-68
2021/11/13 06:45:35;;;;;;;;;;;2.90;48.60;;;;;;5086168;28;20552;-68
2021/11/13 06:48:03;;;;;;;;;;;3.00;48.60;;;;;;5082833;28;19924;-67
2021/11/13 06:50:32;;;;;;;;;;;2.90;47.50;;;;;;5081432;28;19997;-67
2021/11/13 06:53:03;;;;;;;;;;;3.00;47.50;;;;;;5084598;28;19956;-68
2021/11/13 06:55:31;;;;;;;;;;;3.00;47.90;;;;;;5077284;28;19989;-68
2021/11/13 06:57:59;;;;;;;;;;;3.00;46.90;;;;;;5082017;28;19957;-68
2021/11/13 07:00:27;;;;;;;;;;;3.10;46.90;;;;;;5080102;28;20567;-68
2021/11/13 07:02:59;;;;;;;;;;;3.10;46.90;;;;;;5076456;28;20007;-68
2021/11/13 07:05:27;;;;;;;;;;;3.20;46.30;;;;;;5080012;28;20363;-68
2021/11/13 07:07:56;;;;;;;;;;;3.20;45.80;;;;;;5080345;28;20022;-68
2021/11/13 07:10:25;;;;;;;;;;;3.20;44.70;;;;;;5082165;28;19963;-68
2021/11/13 07:12:53;;;;;;;;;;;3.30;45.20;;;;;;5083154;28;20032;-68
2021/11/13 07:15:24;;;;;;;;;;;3.30;44.80;;;;;;5077868;28;19952;-68
2021/11/13 07:17:57;;;;;;;;;;;3.30;44.60;;;;;;5082445;28;20387;-68
2021/11/13 07:20:25;;;;;;;;;;;3.40;44.80;;;;;;5081963;28;20383;-68
2021/11/13 07:22:53;;;;;;;;;;;3.40;44.30;;;;;;5084960;28;19924;-68
2021/11/13 07:25:22;;;;;;;;;;;3.40;43.90;;;;;;5078095;28;20026;-67
2021/11/13 07:27:56;;;;;;;;;;;3.40;42.80;;;;;;5089220;28;20391;-68
2021/11/13 07:30:25;;;;;;;;;;;3.40;42.40;;;;;;5082737;28;19924;-68
2021/11/13 07:32:52;;;;;;;;;;;3.40;40.90;;;;;;5081731;28;19960;-68
2021/11/13 07:35:22;;;;;;;;;;;3.50;41.10;;;;;;5084789;28;20026;-67
2021/11/13 07:37:51;;;;;;;;;;;3.50;40.90;;;;;;5084915;28;19924;-68
2021/11/13 07:40:21;;;;;;;;;;;3.40;39.20;;;;;;5089236;28;19924;-68
2021/11/13 07:42:50;;;;;;;;;;;3.50;40.10;;;;;;5087891;28;20023;-68
2021/11/13 07:45:18;;;;;;;;;;;3.50;40.90;;;;;;5082601;27;20352;-67
2021/11/13 07:47:45;;;;;;;;;;;3.70;41.10;;;;;;5084333;28;20026;-68
2021/11/13 07:50:14;;;;;;;;;;;3.70;40.00;;;;;;5081042;28;20375;-67
2021/11/13 07:52:44;;;;;;;;;;;3.70;40.10;;;;;;5083857;28;20024;-67
2021/11/13 07:55:16;;;;;;;;;;;3.80;39.30;;;;;;5084640;28;19986;-67
2021/11/13 07:57:44;;;;;;;;;;;3.80;37.10;;;;;;5084827;28;19934;-68
2021/11/13 08:00:17;;;;;;;;;;;3.90;38.60;;;;;;5089295;28;19924;-68
2021/11/13 08:02:47;;;;;;;;;;;4.00;38.70;;;;;;5081529;28;19954;-68
2021/11/13 08:05:18;;;;;;;;;;;4.00;39.00;;;;;;5079773;28;19940;-67
2021/11/13 08:07:50;;;;;;;;;;;4.00;36.90;;;;;;5090794;28;19977;-67
2021/11/13 08:10:18;;;;;;;;;;;4.00;36.10;;;;;;5084384;28;19928;-68
2021/11/13 08:12:47;;;;;;;;;;;4.00;35.20;;;;;;5078934;28;20478;-68
2021/11/13 08:15:16;;;;;;;;;;;4.10;33.20;;;;;;5094825;27;19976;-68
2021/11/13 08:17:44;;;;;;;;;;;4.10;34.70;;;;;;5105597;27;19939;-68
2021/11/13 08:20:16;;;;;;;;;;;4.00;34.40;;;;;;5103937;27;19932;-67
2021/11/13 08:22:44;;;;;;;;;;;4.10;34.80;;;;;;5102943;28;19989;-68
2021/11/13 08:25:15;;;;;;;;;;;4.10;34.80;;;;;;5076111;28;19964;-68
2021/11/13 08:27:44;;;;;;;;;;;4.10;36.60;;;;;;5099507;28;19959;-68
2021/11/13 08:30:13;;;;;;;;;;;4.10;35.30;;;;;;5102795;28;19971;-68
2021/11/13 08:32:46;;;;;;;;;;;4.10;35.80;;;;;;5094332;28;20403;-68
2021/11/13 08:35:14;;;;;;;;;;;4.20;35.40;;;;;;5100316;28;20027;-68
2021/11/13 08:37:42;;;;;;;;;;;4.20;34.70;;;;;;5096380;28;19928;-68
2021/11/13 08:40:13;;;;;;;;;;;4.30;33.90;;;;;;5095427;28;19928;-68
2021/11/13 08:42:42;;;;;;;;;;;4.30;33.20;;;;;;5101316;28;20023;-68
2021/11/13 08:45:12;;;;;;;;;;;4.30;33.30;;;;;;5091978;28;20320;-68
2021/11/13 08:47:40;;;;;;;;;;;4.40;33.70;;;;;;5104152;28;20409;-68
2021/11/13 08:50:10;;;;;;;;;;;4.40;33.40;;;;;;5098990;28;19931;-68
2021/11/13 08:52:38;;;;;;;;;;;4.50;33.90;;;;;;5096341;28;20383;-68
2021/11/13 08:55:12;;;;;;;;;;;4.50;34.10;;;;;;5094301;28;19923;-68
2021/11/13 08:57:43;;;;;;;;;;;4.50;33.40;;;;;;5100176;28;19939;-68
2021/11/13 09:00:12;;;;;;;;;;;4.40;33.30;;;;;;5096608;28;20398;-68
2021/11/13 09:02:40;;;;;;;;;;;4.40;33.30;;;;;;5102063;28;20047;-68
2021/11/13 09:05:08;;;;;;;;;;;4.50;33.40;;;;;;5094980;28;19930;-70
2021/11/13 09:07:40;;;;;;;;;;;4.60;32.80;;;;;;5105074;28;19931;-68
2021/11/13 09:10:10;;;;;;;;;;;4.70;32.00;;;;;;5095314;28;19928;-68
2021/11/13 09:12:40;;;;;;;;;;;4.80;30.70;;;;;;5100538;28;20642;-68
2021/11/13 09:15:11;;;;;;;;;;;5.00;30.80;;;;;;5093931;28;19928;-68
2021/11/13 09:17:39;;;;;;;;;;;5.10;29.00;;;;;;5096907;28;20352;-68
2021/11/13 09:20:08;;;;;;;;;;;5.20;28.10;;;;;;5100865;28;20439;-68
2021/11/13 09:22:37;;;;;;;;;;;5.30;26.20;;;;;;5105760;28;19973;-69
2021/11/13 09:25:08;;;;;;;;;;;5.30;24.90;;;;;;5094046;28;20012;-69
2021/11/13 09:27:38;;;;;;;;;;;5.30;24.90;;;;;;5107902;27;20268;-69
2021/11/13 09:30:11;;;;;;;;;;;5.50;25.30;;;;;;5080409;27;19924;-69
2021/11/13 09:32:46;;;;;;;;;;;5.50;23.40;;;;;;5093869;28;19928;-69
2021/11/13 09:35:14;;;;;;;;;;;5.70;22.30;;;;;;5103770;27;19971;-68
2021/11/13 09:37:43;;;;;;;;;;;5.70;20.90;;;;;;5102813;27;20375;-68
2021/11/13 09:40:12;;;;;;;;;;;5.90;21.80;;;;;;5109518;27;20286;-68
2021/11/13 09:42:39;;;;;;;;;;;6.00;21.20;;;;;;5104296;27;20015;-69
2021/11/13 09:45:11;;;;;;;;;;;6.10;20.30;;;;;;5105564;27;19973;-68
2021/11/13 09:47:44;;;;;;;;;;;6.20;20.40;;;;;;5099595;28;20362;-68
2021/11/13 09:50:14;;;;;;;;;;;6.50;21.60;;;;;;5100643;27;20295;-68
2021/11/13 09:52:43;;;;;;;;;;;6.50;18.30;;;;;;5080448;28;20121;-68
2021/11/13 09:55:11;;;;;;;;;;;6.50;22.90;;;;;;5076912;28;19996;-68
2021/11/13 09:57:39;;;;;;;;;;;6.50;23.00;;;;;;5102617;28;20418;-68
2021/11/13 10:00:09;;;;;;;;;;;6.40;23.20;;;;;;5076110;28;20008;-68
2021/11/13 10:02:41;;;;;;;;;;;6.30;23.90;;;;;;5078062;28;20032;-69
2021/11/13 10:05:09;;;;;;;;;;;6.20;24.70;;;;;;5078862;28;20015;-68
2021/11/13 10:07:38;;;;;;;;;;;6.30;23.90;;;;;;5080149;28;19931;-68
2021/11/13 10:10:07;;;;;;;;;;;6.40;25.50;;;;;;5106651;28;20354;-69
2021/11/13 10:12:35;;;;;;;;;;;6.60;25.90;;;;;;5078620;28;20723;-68
2021/11/13 10:15:22;;;;;;;;;;;6.60;24.00;;;;;;5078472;28;20276;-68
2021/11/13 10:18:09;;;;;;;;;;;6.70;24.10;;;;;;5087377;28;19938;-68
2021/11/13 10:20:42;;;;;;;;;;;6.60;22.00;;;;;;5090394;28;19938;-68
2021/11/13 10:23:32;;;;;;;;;;;6.80;23.00;;;;;;5075742;28;19973;-68
2021/11/13 10:26:03;;;;;;;;;;;6.90;22.80;;;;;;5101217;28;19924;-68
2021/11/13 10:28:44;;;;;;;;;;;7.10;22.80;;;;;;5100328;28;20438;-68
2021/11/13 10:31:16;;;;;;;;;;;7.10;22.10;;;;;;5085136;28;19964;-68
2021/11/13 10:33:46;;;;;;;;;;;7.20;19.20;;;;;;5080889;28;19928;-68
2021/11/13 10:36:21;;;;;;;;;;;7.20;20.00;;;;;;5057030;28;19928;-67
2021/11/13 10:38:59;;;;;;;;;;;7.30;20.70;;;;;;5082965;28;19934;-68
2021/11/13 10:41:27;;;;;;;;;;;7.40;21.90;;;;;;5076163;28;20050;-68
2021/11/13 10:43:55;;;;;;;;;;;7.30;20.50;;;;;;5074462;28;19948;-68
2021/11/13 10:46:24;;;;;;;;;;;7.30;21.10;;;;;;5074258;28;19931;-69
2021/11/13 10:48:59;;;;;;;;;;;7.30;22.00;;;;;;5076486;28;19929;-69
2021/11/13 10:51:29;;;;;;;;;;;7.30;21.10;;;;;;5071616;28;20058;-68
2021/11/13 10:54:07;;;;;;;;;;;7.40;21.10;;;;;;5077515;28;19924;-68
2021/11/13 10:56:41;;;;;;;;;;;7.20;21.00;;;;;;5070148;28;19925;-68
2021/11/13 10:59:10;;;;;;;;;;;7.40;21.00;;;;;;5075085;28;20277;-68
2021/11/13 11:01:41;;;;;;;;;;;7.40;19.70;;;;;;5074328;28;19924;-68
2021/11/13 11:04:14;;;;;;;;;;;7.40;21.10;;;;;;5080071;28;19935;-68
2021/11/13 11:06:46;;;;;;;;;;;7.40;21.10;;;;;;5095711;28;19935;-67
2021/11/13 11:09:18;;;;;;;;;;;7.40;21.10;;;;;;5107173;28;19954;-68
2021/11/13 11:11:46;;;;;;;;;;;7.30;23.00;;;;;;5099217;28;19931;-66
2021/11/13 11:14:17;;;;;;;;;;;7.40;22.80;;;;;;5101398;28;19931;-66
2021/11/13 11:16:46;;;;;;;;;;;7.40;23.90;;;;;;5100023;28;19931;-68
2021/11/13 11:19:17;;;;;;;;;;;7.40;23.50;;;;;;5081116;28;20005;-68
2021/11/13 11:22:00;;;;;;;;;;;7.60;21.30;;;;;;5084092;28;19925;-66
2021/11/13 11:24:37;;;;;;;;;;;7.50;17.30;;;;;;5082236;28;19940;-68
2021/11/13 11:27:06;;;;;;;;;;;7.50;21.30;;;;;;5079263;28;19947;-68
2021/11/13 11:29:35;;;;;;;;;;;7.60;24.70;;;;;;5085768;28;19978;-68
2021/11/13 11:32:04;;;;;;;;;;;7.50;24.30;;;;;;5084809;28;20340;-68
2021/11/13 11:34:36;;;;;;;;;;;7.40;24.60;;;;;;5077867;28;19938;-68
2021/11/13 11:37:08;;;;;;;;;;;7.50;24.70;;;;;;5092189;28;19974;-68
2021/11/13 11:39:36;;;;;;;;;;;7.70;24.80;;;;;;5104204;28;19932;-68
2021/11/13 11:42:09;;;;;;;;;;;7.80;24.20;;;;;;5104987;27;19924;-68
2021/11/13 11:44:40;;;;;;;;;;;7.80;24.60;;;;;;5105914;27;19939;-68
2021/11/13 11:47:10;;;;;;;;;;;7.70;24.80;;;;;;5103942;27;19931;-67
2021/11/13 11:49:43;;;;;;;;;;;7.70;24.80;;;;;;5089567;28;20334;-67
2021/11/13 11:52:15;;;;;;;;;;;7.70;24.30;;;;;;5111212;27;19923;-67
2021/11/13 11:54:46;;;;;;;;;;;7.70;24.50;;;;;;5096985;27;19975;-68
2021/11/13 11:57:18;;;;;;;;;;;7.70;23.80;;;;;;5104132;28;19963;-68
2021/11/13 11:59:49;;;;;;;;;;;7.70;24.10;;;;;;5107019;28;19931;-68
2021/11/13 12:02:18;;;;;;;;;;;7.80;23.80;;;;;;5101533;27;21220;-68
2021/11/13 12:04:50;;;;;;;;;;;7.70;23.50;;;;;;5103996;27;20012;-67
2021/11/13 12:07:27;;;;;;;;;;;7.80;23.70;;;;;;5109034;28;19972;-67
2021/11/13 12:10:00;;;;;;;;;;;7.90;22.60;;;;;;5079474;28;19969;-68
2021/11/13 12:12:31;;;;;;;;;;;7.90;21.70;;;;;;5105918;27;20020;-68
2021/11/13 12:15:20;;;;;;;;;;;7.80;22.60;;;;;;5083193;28;19927;-68
2021/11/13 12:17:49;;;;;;;;;;;7.70;24.00;;;;;;5103059;27;20162;-67
2021/11/13 12:20:25;;;;;;;;;;;7.60;24.70;;;;;;5098846;28;20052;-67
2021/11/13 12:23:00;;;;;;;;;;;7.60;25.90;;;;;;5077324;28;19927;-68
2021/11/13 12:25:33;;;;;;;;;;;7.70;26.40;;;;;;5091125;28;20016;-68
2021/11/13 12:28:10;;;;;;;;;;;7.80;25.90;;;;;;5100869;28;20335;-66
2021/11/13 12:30:46;;;;;;;;;;;7.70;26.60;;;;;;5077857;28;19932;-67
2021/11/13 12:33:38;;;;;;;;;;;7.70;27.40;;;;;;5083445;28;19928;-67
2021/11/13 12:36:11;;;;;;;;;;;7.70;26.90;;;;;;5091280;28;19928;-67
2021/11/13 12:38:40;;;;;;;;;;;7.70;26.40;;;;;;5096094;28;19973;-67
2021/11/13 12:41:14;;;;;;;;;;;7.70;25.70;;;;;;5097770;28;19935;-68
2021/11/13 12:44:00;;;;;;;;;;;7.80;25.70;;;;;;5102783;28;20044;-68
2021/11/13 12:46:34;;;;;;;;;;;7.80;24.70;;;;;;5096045;28;19930;-68
2021/11/13 12:49:26;;;;;;;;;;;7.70;25.60;;;;;;5098301;28;20387;-68
2021/11/13 12:52:05;;;;;;;;;;;7.70;24.80;;;;;;5100459;28;19972;-67
2021/11/13 12:54:34;;;;;;;;;;;7.70;25.20;;;;;;5096132;28;19943;-68
2021/11/13 12:57:05;;;;;;;;;;;7.60;25.40;;;;;;5096281;28;20019;-67
2021/11/13 12:59:34;;;;;;;;;;;7.70;25.10;;;;;;5101368;28;20418;-67
2021/11/13 13:02:03;;;;;;;;;;;7.70;25.40;;;;;;5096514;27;19928;-67
2021/11/13 13:04:32;;;;;;;;;;;7.70;24.80;;;;;;5093631;28;19932;-67
2021/11/13 13:07:03;;;;;;;;;;;7.60;25.50;;;;;;5101893;28;20294;-67
2021/11/13 13:09:36;;;;;;;;;;;7.60;26.30;;;;;;5098634;28;19931;-67
2021/11/13 13:12:04;;;;;;;;;;;7.60;25.60;;;;;;5090221;28;19927;-67
2021/11/13 13:14:34;;;;;;;;;;;7.60;24.70;;;;;;5098154;27;19932;-68
2021/11/13 13:17:04;;;;;;;;;;;7.60;25.20;;;;;;5100273;27;19959;-67
2021/11/13 13:19:34;;;;;;;;;;;7.60;26.10;;;;;;5100133;27;19924;-68
2021/11/13 13:22:08;;;;;;;;;;;7.70;24.20;;;;;;5101210;27;20335;-68
2021/11/13 13:24:41;;;;;;;;;;;7.70;24.80;;;;;;5095965;27;20771;-68
2021/11/13 13:27:13;;;;;;;;;;;7.60;25.50;;;;;;5063573;28;19972;-67
2021/11/13 13:29:46;;;;;;;;;;;7.70;25.40;;;;;;5103851;28;19923;-67
2021/11/13 13:32:17;;;;;;;;;;;7.70;24.40;;;;;;5091265;28;19971;-66
2021/11/13 13:34:50;;;;;;;;;;;7.80;23.40;;;;;;5093849;28;19985;-66
2021/11/13 13:37:23;;;;;;;;;;;7.70;22.90;;;;;;5098003;28;19924;-68
2021/11/13 13:39:54;;;;;;;;;;;7.80;23.20;;;;;;5100983;27;19923;-67
2021/11/13 13:42:33;;;;;;;;;;;7.70;23.50;;;;;;5103006;27;19976;-68
2021/11/13 13:45:02;;;;;;;;;;;7.70;23.80;;;;;;5095497;27;19939;-68
2021/11/13 13:47:30;;;;;;;;;;;7.70;24.80;;;;;;5077668;28;20425;-68
2021/11/13 13:49:59;;;;;;;;;;;7.70;25.50;;;;;;5080933;28;20634;-67
2021/11/13 13:52:35;;;;;;;;;;;7.70;26.20;;;;;;5092358;28;19924;-68
2021/11/13 13:55:07;;;;;;;;;;;7.60;26.80;;;;;;5094441;28;19923;-67
2021/11/13 13:57:35;;;;;;;;;;;7.60;27.70;;;;;;5075754;28;19950;-68
2021/11/13 14:00:10;;;;;;;;;;;7.60;27.90;;;;;;5098586;28;19924;-68
2021/11/13 14:02:40;;;;;;;;;;;7.70;28.10;;;;;;5080066;28;19928;-68
2021/11/13 14:05:09;;;;;;;;;;;7.70;28.10;;;;;;5075182;28;19927;-68
2021/11/13 14:07:39;;;;;;;;;;;7.70;29.10;;;;;;5096494;28;19924;-68
2021/11/13 14:10:13;;;;;;;;;;;7.70;31.30;;;;;;5084460;28;19924;-67
2021/11/13 14:12:45;;;;;;;;;;;7.70;34.60;;;;;;5097873;28;20396;-66
2021/11/13 14:15:15;;;;;;;;;;;7.70;36.80;;;;;;5096785;28;19950;-65
2021/11/13 14:17:43;;;;;;;;;;;7.70;39.10;;;;;;5098647;28;20026;-67
2021/11/13 14:20:14;;;;;;;;;;;7.70;40.50;;;;;;5099051;28;20343;-68
2021/11/13 14:23:00;;;;;;;;;;;7.70;41.10;;;;;;5095224;28;19991;-68
2021/11/13 14:25:30;;;;;;;;;;;7.70;42.10;;;;;;5090668;28;20413;-68
2021/11/13 14:28:00;;;;;;;;;;;7.60;43.40;;;;;;5066275;28;19930;-68
2021/11/13 14:30:35;;;;;;;;;;;7.60;44.40;;;;;;5076500;28;20345;-66
2021/11/13 14:33:02;;;;;;;;;;;7.70;45.10;;;;;;5097883;28;20025;-67
2021/11/13 14:35:33;;;;;;;;;;;7.80;44.50;;;;;;5096278;28;19940;-67
2021/11/13 14:38:08;;;;;;;;;;;7.80;44.50;;;;;;5104387;28;19931;-66
2021/11/13 14:40:53;;;;;;;;;;;7.80;44.60;;;;;;5102221;28;19967;-67
2021/11/13 14:43:25;;;;;;;;;;;7.80;45.30;;;;;;5105715;28;20022;-67
2021/11/13 14:45:53;;;;;;;;;;;7.70;45.90;;;;;;5097324;28;19954;-67
2021/11/13 14:48:23;;;;;;;;;;;7.80;46.90;;;;;;5100493;28;20420;-68
2021/11/13 14:50:52;;;;;;;;;;;7.80;47.80;;;;;;5097034;28;19928;-68
2021/11/13 14:53:27;;;;;;;;;;;7.70;48.50;;;;;;5081990;28;19966;-67